createdAt,value
2018-04-01T00:00:53.728Z,19.20
2018-04-01T00:03:21.030Z,13.53
2018-04-01T00:05:49.102Z,13.55
2018-04-01T00:08:17.238Z,13.43
2018-04-01T00:10:44.566Z,14.03
2018-04-01T00:13:11.894Z,11.77
2018-04-01T00:15:39.970Z,17.50
2018-04-01T00:18:08.077Z,13.00
2018-04-01T00:20:35.399Z,15.93
2018-04-01T00:23:02.730Z,15.53
2018-04-01T00:25:30.094Z,12.93
2018-04-01T00:27:57.401Z,15.73
2018-04-01T00:30:26.654Z,11.80
2018-04-01T00:32:53.965Z,13.97
2018-04-01T00:35:21.281Z,19.70
2018-04-01T00:37:48.621Z,11.30
2018-04-01T00:40:15.982Z,15.60
2018-04-01T00:42:43.298Z,14.90
2018-04-01T00:45:11.382Z,12.65
2018-04-01T00:47:38.791Z,13.93
2018-04-01T00:50:06.137Z,12.50
2018-04-01T00:52:33.446Z,12.87
2018-04-01T00:55:01.586Z,16.77
2018-04-01T00:57:28.937Z,14.50
2018-04-01T00:59:57.010Z,14.74
2018-04-01T01:02:24.318Z,14.57
2018-04-01T01:04:52.461Z,16.70
2018-04-01T01:07:20.702Z,16.43
2018-04-01T01:09:48.091Z,13.88
2018-04-01T01:12:15.401Z,10.20
2018-04-01T01:14:43.498Z,14.03
2018-04-01T01:17:10.810Z,14.23
2018-04-01T01:19:38.145Z,17.12
2018-04-01T01:22:05.510Z,10.50
2018-04-01T01:24:32.843Z,12.80
2018-04-01T01:27:00.150Z,14.60
2018-04-01T01:29:29.022Z,15.00
2018-04-01T01:31:57.458Z,12.97
2018-04-01T01:34:25.573Z,14.30
2018-04-01T01:36:52.901Z,10.80
2018-04-01T01:39:20.970Z,13.53
2018-04-01T01:41:49.065Z,12.37
2018-04-01T01:44:16.449Z,12.47
2018-04-01T01:46:43.771Z,12.63
2018-04-01T01:49:11.178Z,10.70
2018-04-01T01:51:38.489Z,13.17
2018-04-01T01:54:05.890Z,11.27
2018-04-01T01:56:33.210Z,11.10
2018-04-01T01:59:00.525Z,9.77
2018-04-01T02:01:27.978Z,12.20
2018-04-01T02:03:55.328Z,14.90
2018-04-01T02:06:22.695Z,11.53
2018-04-01T02:08:50.006Z,13.23
2018-04-01T02:11:18.086Z,12.30
2018-04-01T02:13:45.397Z,14.00
2018-04-01T02:16:12.727Z,13.60
2018-04-01T02:18:40.113Z,13.93
2018-04-01T02:21:07.440Z,10.87
2018-04-01T02:23:34.826Z,13.37
2018-04-01T02:26:02.146Z,13.97
2018-04-01T02:28:29.552Z,9.83
2018-04-01T02:30:56.871Z,9.17
2018-04-01T02:33:24.182Z,12.03
2018-04-01T02:35:51.626Z,13.83
2018-04-01T02:38:18.935Z,11.90
2018-04-01T02:40:47.063Z,10.13
2018-04-01T02:43:14.384Z,11.10
2018-04-01T02:45:41.791Z,11.47
2018-04-01T02:48:09.091Z,9.57
2018-04-01T02:50:37.171Z,4.30
2018-04-01T02:53:05.302Z,6.43
2018-04-01T02:55:32.624Z,5.33
2018-04-01T02:57:59.927Z,5.12
2018-04-01T03:00:27.242Z,8.33
2018-04-01T03:02:54.556Z,4.07
2018-04-01T03:05:21.874Z,3.12
2018-04-01T03:07:49.967Z,10.33
2018-04-01T03:10:17.288Z,6.80
2018-04-01T03:12:44.595Z,6.17
2018-04-01T03:15:11.918Z,7.85
2018-04-01T03:17:39.226Z,4.30
2018-04-01T03:20:06.534Z,4.40
2018-04-01T03:22:33.852Z,6.07
2018-04-01T03:25:01.174Z,4.90
2018-04-01T03:27:29.262Z,5.30
2018-04-01T03:29:56.569Z,5.10
2018-04-01T03:32:24.704Z,5.13
2018-04-01T03:34:52.064Z,8.00
2018-04-01T03:37:19.410Z,9.63
2018-04-01T03:39:46.716Z,6.62
2018-04-01T03:42:14.797Z,7.67
2018-04-01T03:44:42.866Z,10.17
2018-04-01T03:47:10.954Z,10.03
2018-04-01T03:49:39.078Z,7.50
2018-04-01T03:52:06.438Z,10.43
2018-04-01T03:54:33.750Z,7.50
2018-04-01T03:57:01.873Z,6.93
2018-04-01T03:59:29.730Z,10.98
2018-04-01T04:01:57.110Z,9.27
2018-04-01T04:04:24.422Z,9.50
2018-04-01T04:06:52.513Z,6.90
2018-04-01T04:09:19.817Z,8.23
2018-04-01T04:11:48.668Z,13.10
2018-04-01T04:14:16.062Z,14.43
2018-04-01T04:16:43.414Z,11.50
2018-04-01T04:19:10.721Z,11.57
2018-04-01T04:21:38.805Z,10.70
2018-04-01T04:24:06.878Z,11.27
2018-04-01T04:26:34.972Z,11.53
2018-04-01T04:29:02.283Z,11.98
2018-04-01T04:31:30.229Z,10.18
2018-04-01T04:33:57.593Z,12.30
2018-04-01T04:36:24.962Z,11.20
2018-04-01T04:38:52.314Z,10.70
2018-04-01T04:41:19.634Z,10.13
2018-04-01T04:43:47.037Z,10.38
2018-04-01T04:46:14.394Z,11.82
2018-04-01T04:48:41.754Z,8.90
2018-04-01T04:51:09.084Z,7.70
2018-04-01T04:53:36.390Z,9.70
2018-04-01T04:56:03.829Z,8.47
2018-04-01T04:58:31.141Z,9.47
2018-04-01T05:00:59.211Z,7.87
2018-04-01T05:03:27.291Z,10.77
2018-04-01T05:05:55.421Z,7.97
2018-04-01T05:08:22.765Z,7.70
2018-04-01T05:10:50.061Z,10.47
2018-04-01T05:13:17.398Z,6.37
2018-04-01T05:15:44.711Z,10.10
2018-04-01T05:18:12.808Z,7.35
2018-04-01T05:20:40.106Z,6.80
2018-04-01T05:23:07.425Z,10.00
2018-04-01T05:25:34.734Z,7.47
2018-04-01T05:28:02.082Z,7.35
2018-04-01T05:30:29.393Z,6.30
2018-04-01T05:32:56.774Z,6.83
2018-04-01T05:35:24.081Z,7.20
2018-04-01T05:37:52.166Z,9.57
2018-04-01T05:40:19.473Z,9.27
2018-04-01T05:42:46.784Z,8.30
2018-04-01T05:45:14.858Z,7.57
2018-04-01T05:47:42.291Z,7.33
2018-04-01T05:50:09.605Z,10.70
2018-04-01T05:52:36.914Z,7.67
2018-04-01T05:55:04.262Z,10.80
2018-04-01T05:57:31.697Z,7.50
2018-04-01T05:59:59.081Z,7.65
2018-04-01T06:02:26.450Z,9.23
2018-04-01T06:04:53.840Z,11.63
2018-04-01T06:07:21.157Z,11.33
2018-04-01T06:09:48.522Z,8.27
2018-04-01T06:12:15.851Z,12.37
2018-04-01T06:14:43.486Z,9.60
2018-04-01T06:17:11.630Z,8.23
2018-04-01T06:19:38.989Z,9.85
2018-04-01T06:22:06.319Z,11.75
2018-04-01T06:24:33.709Z,11.83
2018-04-01T06:27:02.191Z,13.05
2018-04-01T06:29:29.498Z,11.37
2018-04-01T06:31:57.585Z,10.63
2018-04-01T06:34:25.652Z,12.60
2018-04-01T06:36:53.726Z,9.53
2018-04-01T06:39:21.799Z,12.70
2018-04-01T06:41:49.930Z,14.10
2018-04-01T06:44:17.238Z,12.25
2018-04-01T06:46:45.369Z,13.40
2018-04-01T06:49:12.726Z,16.20
2018-04-01T06:51:40.034Z,15.90
2018-04-01T06:54:08.124Z,13.40
2018-04-01T06:56:36.186Z,15.10
2018-04-01T06:59:04.275Z,14.50
2018-04-01T07:01:32.606Z,17.84
2018-04-01T07:03:59.930Z,13.77
2018-04-01T07:06:27.241Z,14.40
2018-04-01T07:08:54.567Z,18.80
2018-04-01T07:11:21.942Z,17.30
2018-04-01T07:13:49.269Z,15.97
2018-04-01T07:16:16.589Z,12.18
2018-04-01T07:18:44.026Z,19.47
2018-04-01T07:21:11.326Z,13.60
2018-04-01T07:23:39.512Z,16.83
2018-04-01T07:26:06.813Z,14.30
2018-04-01T07:28:34.183Z,15.40
2018-04-01T07:31:01.482Z,13.33
2018-04-01T07:33:29.566Z,10.13
2018-04-01T07:35:56.972Z,16.30
2018-04-01T07:38:24.290Z,11.90
2018-04-01T07:40:51.685Z,14.27
2018-04-01T07:43:19.023Z,11.88
2018-04-01T07:45:46.318Z,9.23
2018-04-01T07:48:13.637Z,8.25
2018-04-01T07:50:40.954Z,8.57
2018-04-01T07:53:08.278Z,7.10
2018-04-01T07:55:35.577Z,8.40
2018-04-01T07:58:03.312Z,6.40
2018-04-01T08:00:30.666Z,7.40
2018-04-01T08:02:58.040Z,7.17
2018-04-01T08:05:25.657Z,10.00
2018-04-01T08:07:53.774Z,5.93
2018-04-01T08:10:21.133Z,13.03
2018-04-01T08:12:48.456Z,5.50
2018-04-01T08:15:15.761Z,5.20
2018-04-01T08:17:43.080Z,5.47
2018-04-01T08:20:10.482Z,5.37
2018-04-01T08:22:37.798Z,4.53
2018-04-01T08:25:05.114Z,4.15
2018-04-01T08:27:33.581Z,4.03
2018-04-01T08:30:00.886Z,5.20
2018-04-01T08:32:29.011Z,3.97
2018-04-01T08:34:57.297Z,3.03
2018-04-01T08:37:24.608Z,2.80
2018-04-01T08:39:52.682Z,7.37
2018-04-01T08:42:20.778Z,2.53
2018-04-01T08:44:48.172Z,2.80
2018-04-01T08:47:15.526Z,5.85
2018-04-01T08:49:42.886Z,4.07
2018-04-01T08:52:10.193Z,5.27
2018-04-01T08:54:38.322Z,3.33
2018-04-01T08:57:05.702Z,4.30
2018-04-01T08:59:34.194Z,3.40
2018-04-01T09:02:01.474Z,3.47
2018-04-01T09:04:29.561Z,3.43
2018-04-01T09:06:57.653Z,3.50
2018-04-01T09:09:25.062Z,3.33
2018-04-01T09:11:52.346Z,2.95
2018-04-01T09:14:20.447Z,3.62
2018-04-01T09:16:47.767Z,2.90
2018-04-01T09:19:15.138Z,3.23
2018-04-01T09:21:43.202Z,3.10
2018-04-01T09:24:10.518Z,4.20
2018-04-01T09:26:37.824Z,3.37
2018-04-01T09:29:05.255Z,3.40
2018-04-01T09:31:32.605Z,7.30
2018-04-01T09:33:59.969Z,2.80
2018-04-01T09:36:27.274Z,2.57
2018-04-01T09:38:55.440Z,3.50
2018-04-01T09:41:22.716Z,3.12
2018-04-01T09:43:51.903Z,2.27
2018-04-01T09:46:19.230Z,2.73
2018-04-01T09:48:46.546Z,3.70
2018-04-01T09:51:13.854Z,2.92
2018-04-01T09:53:41.204Z,3.60
2018-04-01T09:56:08.509Z,3.17
2018-04-01T09:58:36.637Z,2.83
2018-04-01T10:01:05.806Z,3.33
2018-04-01T10:03:33.920Z,2.03
2018-04-01T10:06:01.964Z,5.43
2018-04-01T10:08:30.019Z,2.80
2018-04-01T10:10:58.874Z,2.12
2018-04-01T10:13:26.934Z,3.35
2018-04-01T10:15:55.011Z,2.67
2018-04-01T10:18:23.063Z,2.83
2018-04-01T10:20:52.232Z,4.33
2018-04-01T10:23:20.370Z,4.63
2018-04-01T10:25:48.416Z,3.23
2018-04-01T10:28:16.467Z,3.67
2018-04-01T10:30:45.297Z,3.00
2018-04-01T10:33:13.385Z,3.00
2018-04-01T10:35:41.434Z,3.90
2018-04-01T10:38:09.490Z,2.63
2018-04-01T10:40:38.308Z,3.93
2018-04-01T10:43:06.366Z,2.67
2018-04-01T10:45:36.315Z,3.60
2018-04-01T10:48:04.406Z,3.00
2018-04-01T10:50:32.498Z,3.47
2018-04-01T10:53:00.571Z,2.83
2018-04-01T10:55:27.921Z,3.40
2018-04-01T10:57:55.292Z,3.00
2018-04-01T11:00:22.607Z,2.90
2018-04-01T11:02:49.913Z,5.17
2018-04-01T11:05:17.240Z,3.27
2018-04-01T11:07:44.545Z,3.33
2018-04-01T11:10:11.863Z,3.30
2018-04-01T11:12:39.170Z,2.83
2018-04-01T11:15:06.482Z,3.62
2018-04-01T11:17:33.849Z,2.83
2018-04-01T11:20:01.217Z,3.28
2018-04-01T11:22:28.530Z,2.90
2018-04-01T11:24:56.624Z,5.07
2018-04-01T11:27:24.023Z,3.50
2018-04-01T11:29:51.658Z,4.50
2018-04-01T11:32:19.035Z,4.95
2018-04-01T11:34:46.400Z,3.90
2018-04-01T11:37:13.758Z,2.77
2018-04-01T11:39:41.115Z,2.65
2018-04-01T11:42:08.422Z,2.65
2018-04-01T11:44:38.095Z,3.12
2018-04-01T11:47:06.514Z,2.87
2018-04-01T11:49:34.594Z,2.73
2018-04-01T11:52:02.733Z,2.33
2018-04-01T11:54:30.057Z,2.33
2018-04-01T11:56:57.443Z,2.50
2018-04-01T11:59:24.762Z,3.57
2018-04-01T12:01:52.835Z,2.30
2018-04-01T12:04:20.972Z,2.47
2018-04-01T12:06:48.270Z,2.90
2018-04-01T12:09:16.402Z,2.87
2018-04-01T12:11:43.710Z,2.30
2018-04-01T12:14:11.840Z,1.80
2018-04-01T12:16:39.147Z,2.37
2018-04-01T12:19:07.713Z,4.26
2018-04-01T12:21:35.038Z,2.80
2018-04-01T12:24:02.363Z,2.42
2018-04-01T12:26:29.670Z,2.03
2018-04-01T12:28:56.985Z,1.50
2018-04-01T12:31:24.294Z,1.90
2018-04-01T12:33:51.632Z,2.07
2018-04-01T12:36:18.942Z,1.67
2018-04-01T12:38:47.099Z,1.10
2018-04-01T12:41:14.343Z,1.07
2018-04-01T12:43:41.664Z,1.12
2018-04-01T12:46:09.086Z,0.90
2018-04-01T12:48:37.434Z,1.36
2018-04-01T12:51:04.787Z,2.22
2018-04-01T12:53:32.110Z,1.30
2018-04-01T12:55:59.506Z,1.10
2018-04-01T12:58:26.822Z,1.23
2018-04-01T13:00:54.955Z,1.60
2018-04-01T13:03:22.311Z,1.83
2018-04-01T13:05:49.662Z,2.03
2018-04-01T13:08:18.174Z,1.70
2018-04-01T13:10:46.334Z,1.33
2018-04-01T13:13:13.689Z,1.50
2018-04-01T13:15:41.054Z,1.70
2018-04-01T13:18:08.411Z,1.73
2018-04-01T13:20:35.727Z,2.00
2018-04-01T13:23:03.133Z,1.80
2018-04-01T13:25:30.486Z,1.37
2018-04-01T13:27:57.799Z,1.30
2018-04-01T13:30:25.877Z,0.80
2018-04-01T13:32:54.010Z,0.97
2018-04-01T13:35:21.409Z,0.90
2018-04-01T13:37:48.675Z,0.70
2018-04-01T13:40:16.771Z,0.90
2018-04-01T13:42:44.078Z,1.20
2018-04-01T13:45:11.394Z,2.90
2018-04-01T13:47:38.777Z,1.80
2018-04-01T13:50:06.098Z,1.50
2018-04-01T13:52:33.499Z,0.80
2018-04-01T13:55:00.824Z,0.70
2018-04-01T13:57:28.146Z,1.63
2018-04-01T13:59:55.465Z,0.90
2018-04-01T14:02:22.799Z,1.13
2018-04-01T14:04:50.205Z,1.80
2018-04-01T14:07:17.554Z,1.30
2018-04-01T14:09:44.910Z,1.83
2018-04-01T14:12:12.223Z,1.60
2018-04-01T14:14:40.297Z,1.50
2018-04-01T14:17:09.494Z,1.30
2018-04-01T14:19:36.919Z,1.40
2018-04-01T14:22:04.230Z,1.20
2018-04-01T14:24:32.350Z,1.87
2018-04-01T14:26:59.658Z,1.40
2018-04-01T14:29:27.794Z,1.00
2018-04-01T14:31:55.138Z,0.97
2018-04-01T14:34:22.474Z,0.90
2018-04-01T14:36:49.866Z,1.17
2018-04-01T14:39:17.192Z,1.57
2018-04-01T14:41:44.591Z,3.60
2018-04-01T14:44:11.945Z,1.17
2018-04-01T14:46:39.250Z,1.77
2018-04-01T14:49:07.352Z,1.20
2018-04-01T14:51:34.749Z,1.60
2018-04-01T14:54:02.042Z,1.60
2018-04-01T14:56:30.178Z,1.40
2018-04-01T14:58:57.482Z,1.47
2018-04-01T15:01:25.566Z,2.50
2018-04-01T15:03:54.550Z,1.63
2018-04-01T15:06:22.695Z,3.22
2018-04-01T15:08:49.993Z,2.97
2018-04-01T15:11:18.095Z,2.97
2018-04-01T15:13:45.403Z,2.27
2018-04-01T15:16:12.742Z,2.40
2018-04-01T15:18:40.104Z,2.83
2018-04-01T15:21:07.466Z,2.40
2018-04-01T15:23:34.836Z,2.27
2018-04-01T15:26:02.142Z,1.98
2018-04-01T15:28:29.446Z,2.23
2018-04-01T15:30:56.770Z,5.27
2018-04-01T15:33:24.082Z,3.10
2018-04-01T15:35:52.480Z,3.33
2018-04-01T15:38:20.723Z,3.33
2018-04-01T15:40:48.114Z,2.83
2018-04-01T15:43:15.464Z,2.60
2018-04-01T15:45:42.778Z,2.60
2018-04-01T15:48:10.262Z,3.90
2018-04-01T15:50:37.630Z,2.73
2018-04-01T15:53:04.937Z,3.27
2018-04-01T15:55:33.026Z,1.95
2018-04-01T15:58:00.432Z,3.25
2018-04-01T16:00:27.748Z,2.87
2018-04-01T16:02:55.062Z,3.03
2018-04-01T16:05:22.385Z,2.25
2018-04-01T16:07:49.692Z,2.70
2018-04-01T16:10:17.005Z,5.43
2018-04-01T16:12:44.312Z,10.10
2018-04-01T16:15:11.740Z,4.37
2018-04-01T16:17:39.045Z,2.10
2018-04-01T16:20:07.180Z,2.20
2018-04-01T16:22:34.482Z,2.67
2018-04-01T16:25:02.578Z,9.95
2018-04-01T16:27:29.889Z,3.23
2018-04-01T16:29:57.201Z,2.92
2018-04-01T16:32:24.510Z,2.20
2018-04-01T16:34:51.843Z,2.20
2018-04-01T16:37:19.150Z,2.30
2018-04-01T16:39:47.286Z,3.23
2018-04-01T16:42:14.646Z,7.57
2018-04-01T16:44:41.964Z,3.33
2018-04-01T16:47:09.362Z,3.05
2018-04-01T16:49:36.726Z,2.50
2018-04-01T16:52:04.070Z,3.87
2018-04-01T16:54:31.375Z,3.20
2018-04-01T16:56:58.690Z,2.85
2018-04-01T16:59:26.063Z,2.97
2018-04-01T17:01:53.418Z,4.83
2018-04-01T17:04:20.726Z,2.80
2018-04-01T17:06:48.869Z,2.93
2018-04-01T17:09:17.008Z,2.58
2018-04-01T17:11:44.274Z,1.90
2018-04-01T17:14:11.649Z,3.10
2018-04-01T17:16:39.006Z,3.70
2018-04-01T17:19:06.314Z,4.40
2018-04-01T17:21:34.417Z,4.87
2018-04-01T17:24:01.720Z,3.28
2018-04-01T17:26:29.033Z,4.20
2018-04-01T17:28:56.356Z,2.80
2018-04-01T17:31:23.669Z,2.78
2018-04-01T17:33:51.422Z,4.87
2018-04-01T17:36:18.734Z,5.15
2018-04-01T17:38:46.882Z,3.42
2018-04-01T17:41:14.217Z,2.97
2018-04-01T17:43:41.998Z,2.45
2018-04-01T17:46:09.378Z,3.67
2018-04-01T17:48:36.742Z,2.77
2018-04-01T17:51:04.060Z,2.85
2018-04-01T17:53:31.458Z,3.90
2018-04-01T17:55:58.825Z,3.27
2018-04-01T17:58:26.185Z,4.03
2018-04-01T18:00:53.540Z,3.07
2018-04-01T18:03:20.893Z,3.25
2018-04-01T18:05:48.214Z,6.33
2018-04-01T18:08:15.522Z,4.40
2018-04-01T18:10:42.870Z,3.17
2018-04-01T18:13:10.178Z,3.90
2018-04-01T18:15:38.306Z,4.18
2018-04-01T18:18:05.614Z,6.57
2018-04-01T18:20:33.710Z,4.97
2018-04-01T18:23:01.022Z,3.80
2018-04-01T18:25:29.185Z,14.50
2018-04-01T18:27:56.491Z,7.00
2018-04-01T18:30:24.570Z,4.87
2018-04-01T18:32:52.646Z,4.20
2018-04-01T18:35:20.711Z,4.70
2018-04-01T18:37:48.805Z,3.33
2018-04-01T18:40:16.110Z,5.20
2018-04-01T18:42:43.430Z,6.33
2018-04-01T18:45:10.737Z,3.83
2018-04-01T18:47:38.057Z,5.83
2018-04-01T18:50:05.361Z,6.65
2018-04-01T18:52:32.682Z,8.07
2018-04-01T18:55:00.063Z,5.60
2018-04-01T18:57:27.386Z,3.13
2018-04-01T18:59:54.686Z,4.80
2018-04-01T19:02:22.010Z,5.03
2018-04-01T19:04:49.306Z,3.80
2018-04-01T19:07:16.626Z,5.13
2018-04-01T19:09:43.922Z,5.57
2018-04-01T19:12:11.274Z,4.37
2018-04-01T19:14:38.641Z,3.20
2018-04-01T19:17:08.349Z,6.40
2018-04-01T19:19:36.401Z,6.97
2018-04-01T19:22:04.475Z,4.97
2018-04-01T19:24:32.534Z,4.83
2018-04-01T19:27:00.650Z,8.57
2018-04-01T19:29:28.698Z,4.27
2018-04-01T19:31:56.754Z,6.70
2018-04-01T19:34:25.593Z,5.03
2018-04-01T19:36:53.647Z,4.23
2018-04-01T19:39:21.690Z,5.30
2018-04-01T19:41:50.517Z,6.00
2018-04-01T19:44:18.635Z,6.90
2018-04-01T19:46:46.689Z,5.67
2018-04-01T19:49:14.744Z,6.07
2018-04-01T19:51:42.827Z,4.93
2018-04-01T19:54:10.866Z,4.37
2018-04-01T19:56:39.706Z,4.30
2018-04-01T19:59:07.772Z,10.47
2018-04-01T20:01:35.834Z,5.82
2018-04-01T20:04:03.958Z,6.25
2018-04-01T20:06:32.022Z,8.07
2018-04-01T20:09:00.105Z,6.00
2018-04-01T20:11:28.168Z,8.67
2018-04-01T20:13:56.312Z,5.63
2018-04-01T20:16:24.337Z,6.50
2018-04-01T20:18:52.381Z,7.20
2018-04-01T20:21:20.906Z,5.57
2018-04-01T20:23:48.993Z,7.40
2018-04-01T20:26:17.869Z,5.03
2018-04-01T20:28:45.937Z,6.00
2018-04-01T20:31:14.014Z,6.07
2018-04-01T20:33:42.092Z,5.50
2018-04-01T20:36:10.953Z,7.55
2018-04-01T20:38:39.066Z,6.67
2018-04-01T20:41:07.114Z,5.57
2018-04-01T20:43:35.173Z,4.50
2018-04-01T20:46:03.221Z,6.00
2018-04-01T20:48:32.053Z,5.60
2018-04-01T20:51:00.166Z,6.22
2018-04-01T20:53:28.235Z,3.70
2018-04-01T20:55:56.287Z,6.20
2018-04-01T20:58:24.354Z,3.45
2018-04-01T21:00:52.470Z,4.17
2018-04-01T21:03:20.757Z,4.22
2018-04-01T21:05:48.802Z,5.47
2018-04-01T21:08:16.872Z,9.60
2018-04-01T21:10:46.070Z,9.90
2018-04-01T21:13:14.130Z,4.70
2018-04-01T21:15:42.969Z,6.77
2018-04-01T21:18:11.037Z,6.67
2018-04-01T21:20:39.122Z,5.10
2018-04-01T21:23:07.724Z,8.57
2018-04-01T21:25:35.791Z,5.43
2018-04-01T21:28:03.877Z,9.30
2018-04-01T21:30:31.927Z,6.20
2018-04-01T21:32:59.985Z,7.93
2018-04-01T21:35:28.030Z,5.57
2018-04-01T21:37:56.897Z,8.00
2018-04-01T21:40:24.946Z,5.70
2018-04-01T21:42:53.009Z,7.70
2018-04-01T21:45:21.114Z,7.15
2018-04-01T21:47:49.173Z,4.87
2018-04-01T21:50:17.239Z,6.37
2018-04-01T21:52:45.347Z,5.80
2018-04-01T21:55:13.421Z,7.85
2018-04-01T21:57:41.494Z,9.13
2018-04-01T22:00:09.541Z,9.07
2018-04-01T22:02:38.389Z,8.63
2018-04-01T22:05:06.845Z,6.77
2018-04-01T22:07:34.909Z,6.00
2018-04-01T22:10:02.954Z,8.70
2018-04-01T22:12:31.793Z,8.85
2018-04-01T22:14:59.874Z,6.03
2018-04-01T22:17:27.925Z,9.73
2018-04-01T22:19:56.038Z,6.97
2018-04-01T22:22:24.203Z,14.93
2018-04-01T22:24:52.374Z,7.82
2018-04-01T22:27:20.566Z,9.70
2018-04-01T22:29:48.610Z,10.83
2018-04-01T22:32:17.450Z,10.13
2018-04-01T22:34:45.541Z,10.90
2018-04-01T22:37:13.561Z,6.17
2018-04-01T22:39:41.731Z,9.90
2018-04-01T22:42:09.833Z,13.82
2018-04-01T22:44:37.898Z,10.80
2018-04-01T22:47:05.958Z,11.93
2018-04-01T22:49:34.777Z,10.97
2018-04-01T22:52:02.858Z,9.80
2018-04-01T22:54:30.904Z,10.80
2018-04-01T22:56:58.965Z,7.68
2018-04-01T22:59:27.781Z,12.03
2018-04-01T23:01:55.851Z,15.15
2018-04-01T23:04:23.907Z,11.60
2018-04-01T23:06:52.346Z,10.75
2018-04-01T23:09:20.416Z,9.20
2018-04-01T23:11:48.462Z,9.20
2018-04-01T23:14:16.547Z,11.80
2018-04-01T23:16:44.647Z,7.17
2018-04-01T23:19:12.726Z,8.07
2018-04-01T23:21:40.798Z,8.27
2018-04-01T23:24:08.879Z,10.53
2018-04-01T23:26:36.926Z,9.27
2018-04-01T23:29:04.990Z,10.73
2018-04-01T23:31:33.587Z,11.83
2018-04-01T23:34:01.654Z,9.50
2018-04-01T23:36:29.774Z,7.93
2018-04-01T23:38:57.851Z,8.98
2018-04-01T23:41:25.921Z,10.13
2018-04-01T23:43:54.022Z,11.97
2018-04-01T23:46:22.055Z,10.23
2018-04-01T23:48:50.153Z,9.63
2018-04-01T23:51:19.444Z,11.05
2018-04-01T23:53:48.615Z,9.43
2018-04-01T23:56:16.739Z,11.10
2018-04-01T23:58:44.798Z,10.43
